Time;durP1;ratioP1;P1;durP2;ratioP2;P2;SDS_P1;SDS_P2;PMS_P1;PMS_P2;Temp;Humidity;BMP_temperature;BMP_pressure;BME280_temperature;BME280_humidity;BME280_pressure;Samples;Min_cycle;Max_cycle;Signal;HPM_P1;HPM_P2
2022/03/21 00:00:51;;;;;;;;;10.75;7.75;;;;;;;;5073943;28;45371;-74
2022/03/21 00:03:17;;;;;;;;;10.50;10.50;;;;;;;;5073144;28;45530;-75
2022/03/21 00:05:44;;;;;;;;;9.75;9.75;;;;;;;;5074185;28;45262;-74
2022/03/21 00:08:11;;;;;;;;;12.00;11.00;;;;;;;;5072477;28;47135;-74
2022/03/21 00:10:37;;;;;;;;;9.00;9.00;;;;;;;;5074695;28;45383;-74
2022/03/21 00:13:03;;;;;;;;;9.50;9.00;;;;;;;;5074159;28;45332;-74
2022/03/21 00:15:29;;;;;;;;;9.75;9.75;;;;;;;;5073128;27;45634;-74
2022/03/21 00:17:56;;;;;;;;;10.25;10.00;;;;;;;;5073704;27;47272;-75
2022/03/21 00:20:21;;;;;;;;;9.00;9.00;;;;;;;;5073864;28;45324;-74
2022/03/21 00:22:46;;;;;;;;;11.25;9.75;;;;;;;;5073750;28;45791;-73
2022/03/21 00:25:12;;;;;;;;;13.25;10.75;;;;;;;;5074946;28;45407;-77
2022/03/21 00:27:38;;;;;;;;;9.00;9.00;;;;;;;;5071375;28;45914;-77
2022/03/21 00:30:04;;;;;;;;;10.00;8.00;;;;;;;;5065669;27;45750;-77
2022/03/21 00:32:30;;;;;;;;;12.00;10.50;;;;;;;;5072874;27;45441;-77
2022/03/21 00:34:55;;;;;;;;;11.00;11.00;;;;;;;;5074050;28;45422;-77
2022/03/21 00:37:23;;;;;;;;;10.00;10.00;;;;;;;;5080309;27;47171;-76
2022/03/21 00:39:48;;;;;;;;;11.25;10.00;;;;;;;;5073240;28;45463;-77
2022/03/21 00:42:14;;;;;;;;;14.00;11.75;;;;;;;;5071446;28;45435;-76
2022/03/21 00:44:39;;;;;;;;;13.50;12.00;;;;;;;;5073908;28;45312;-76
2022/03/21 00:47:04;;;;;;;;;13.00;9.50;;;;;;;;5074093;28;46149;-77
2022/03/21 00:49:29;;;;;;;;;11.50;10.75;;;;;;;;5074520;28;45396;-77
2022/03/21 00:51:55;;;;;;;;;14.00;10.00;;;;;;;;5056368;28;45502;-74
2022/03/21 00:54:20;;;;;;;;;10.25;9.50;;;;;;;;5074067;27;45462;-74
2022/03/21 00:56:45;;;;;;;;;12.50;10.25;;;;;;;;5073753;28;46318;-74
2022/03/21 00:59:10;;;;;;;;;11.75;10.75;;;;;;;;5080617;28;45449;-74
2022/03/21 01:01:35;;;;;;;;;12.75;9.75;;;;;;;;5081312;28;45760;-73
2022/03/21 01:04:01;;;;;;;;;9.50;8.50;;;;;;;;5082484;27;45501;-74
2022/03/21 01:06:26;;;;;;;;;9.75;9.75;;;;;;;;5078243;28;46461;-74
2022/03/21 01:08:51;;;;;;;;;11.75;10.50;;;;;;;;5077811;28;45489;-74
2022/03/21 01:11:16;;;;;;;;;9.75;9.75;;;;;;;;5080488;28;45532;-75
2022/03/21 01:13:42;;;;;;;;;11.50;10.00;;;;;;;;5080423;27;45410;-75
2022/03/21 01:16:10;;;;;;;;;11.25;10.50;;;;;;;;5082030;28;45429;-74
2022/03/21 01:18:36;;;;;;;;;13.75;9.75;;;;;;;;5084204;27;46128;-74
2022/03/21 01:21:01;;;;;;;;;9.75;8.00;;;;;;;;5079770;28;45415;-74
2022/03/21 01:23:26;;;;;;;;;9.50;9.50;;;;;;;;5080366;28;45537;-74
2022/03/21 01:25:51;;;;;;;;;11.25;11.00;;;;;;;;5079741;28;45473;-74
2022/03/21 01:28:17;;;;;;;;;10.75;10.00;;;;;;;;5081103;28;45479;-74
2022/03/21 01:30:42;;;;;;;;;11.75;11.75;;;;;;;;5079794;28;45380;-74
2022/03/21 01:33:07;;;;;;;;;11.00;9.50;;;;;;;;5080040;27;45530;-74
2022/03/21 01:35:33;;;;;;;;;10.50;9.50;;;;;;;;5078386;28;46307;-74
2022/03/21 01:37:58;;;;;;;;;9.50;9.50;;;;;;;;5077570;27;45882;-74
2022/03/21 01:40:23;;;;;;;;;13.75;11.50;;;;;;;;5082445;28;45392;-74
2022/03/21 01:42:48;;;;;;;;;10.25;9.75;;;;;;;;5079796;28;45346;-74
2022/03/21 01:45:14;;;;;;;;;13.50;10.50;;;;;;;;5079839;27;46274;-77
2022/03/21 01:47:39;;;;;;;;;9.25;6.75;;;;;;;;5078520;27;45851;-77
2022/03/21 01:50:05;;;;;;;;;11.75;11.00;;;;;;;;5071500;28;45698;-76
2022/03/21 01:52:31;;;;;;;;;12.25;11.50;;;;;;;;5046645;28;45277;-77
2022/03/21 01:57:41;;;;;;;;;10.00;9.25;;;;;;;;5057358;28;45433;-77
2022/03/21 02:00:06;;;;;;;;;10.75;9.50;;;;;;;;5054917;28;45497;-77
2022/03/21 02:02:33;;;;;;;;;9.50;8.00;;;;;;;;5054756;28;45428;-77
2022/03/21 02:04:58;;;;;;;;;10.00;10.00;;;;;;;;5057662;28;47154;-77
2022/03/21 02:07:25;;;;;;;;;10.00;9.50;;;;;;;;5045745;28;45365;-77
2022/03/21 02:09:50;;;;;;;;;13.00;12.50;;;;;;;;5054278;28;46433;-74
2022/03/21 02:12:15;;;;;;;;;12.25;10.00;;;;;;;;5052819;28;45412;-77
2022/03/21 02:14:41;;;;;;;;;10.75;9.75;;;;;;;;5052613;28;46238;-76
2022/03/21 02:17:06;;;;;;;;;11.25;11.25;;;;;;;;5054059;28;45534;-78
2022/03/21 02:19:32;;;;;;;;;9.00;9.00;;;;;;;;5050144;28;45351;-77
2022/03/21 02:21:57;;;;;;;;;10.00;9.00;;;;;;;;5042432;28;45336;-74
2022/03/21 02:24:22;;;;;;;;;12.80;11.60;;;;;;;;5044925;28;46438;-74
2022/03/21 02:26:48;;;;;;;;;11.75;10.00;;;;;;;;5051611;28;45527;-74
2022/03/21 02:29:14;;;;;;;;;11.00;8.75;;;;;;;;5044596;28;45407;-74
2022/03/21 02:31:40;;;;;;;;;10.25;9.75;;;;;;;;5058839;28;45496;-75
2022/03/21 02:34:06;;;;;;;;;11.00;10.75;;;;;;;;5045429;28;46114;-75
2022/03/21 02:36:32;;;;;;;;;10.75;10.75;;;;;;;;5049441;28;45414;-75
2022/03/21 02:38:58;;;;;;;;;9.75;9.75;;;;;;;;5049791;28;45476;-74
2022/03/21 02:41:23;;;;;;;;;11.00;11.00;;;;;;;;5043737;28;45480;-75
2022/03/21 02:43:58;;;;;;;;;12.00;11.00;;;;;;;;5039247;28;45431;-74
2022/03/21 02:46:24;;;;;;;;;11.50;11.50;;;;;;;;5053293;28;45295;-74
2022/03/21 02:48:50;;;;;;;;;9.00;9.00;;;;;;;;5043364;28;45504;-74
2022/03/21 02:51:17;;;;;;;;;10.25;9.75;;;;;;;;5066143;28;45644;-74
2022/03/21 02:53:43;;;;;;;;;9.00;7.00;;;;;;;;5074567;27;45496;-75
2022/03/21 02:56:09;;;;;;;;;14.00;10.75;;;;;;;;5075376;28;45427;-75
2022/03/21 02:58:34;;;;;;;;;9.75;9.75;;;;;;;;5076246;27;45430;-75
2022/03/21 03:01:05;;;;;;;;;9.00;9.00;;;;;;;;5076823;27;45474;-75
2022/03/21 03:03:30;;;;;;;;;7.00;6.50;;;;;;;;5073677;28;45580;-74
2022/03/21 03:05:55;;;;;;;;;11.75;10.50;;;;;;;;5072599;28;45375;-75
2022/03/21 03:08:20;;;;;;;;;12.00;10.75;;;;;;;;5075869;28;45436;-75
2022/03/21 03:10:45;;;;;;;;;12.25;8.75;;;;;;;;5076364;28;45398;-74
2022/03/21 03:13:10;;;;;;;;;12.50;9.00;;;;;;;;5077348;27;45474;-74
2022/03/21 03:15:36;;;;;;;;;13.00;12.00;;;;;;;;5077668;27;45340;-75
2022/03/21 03:18:01;;;;;;;;;9.25;7.75;;;;;;;;5078433;27;45427;-74
2022/03/21 03:20:26;;;;;;;;;9.00;9.00;;;;;;;;5071494;28;45571;-74
2022/03/21 03:22:52;;;;;;;;;13.00;10.00;;;;;;;;5075076;28;45445;-74
2022/03/21 03:25:18;;;;;;;;;8.00;8.00;;;;;;;;5073039;28;45356;-74
2022/03/21 03:27:43;;;;;;;;;11.50;11.25;;;;;;;;5074710;27;45353;-74
2022/03/21 03:30:08;;;;;;;;;11.25;10.50;;;;;;;;5072996;27;45348;-75
2022/03/21 03:32:34;;;;;;;;;9.75;9.75;;;;;;;;5075783;27;46391;-74
2022/03/21 03:34:59;;;;;;;;;11.50;10.25;;;;;;;;5074823;28;45430;-75
2022/03/21 03:37:24;;;;;;;;;11.00;9.75;;;;;;;;5077348;28;45405;-74
2022/03/21 03:39:49;;;;;;;;;11.75;11.75;;;;;;;;5073820;27;45619;-75
2022/03/21 03:42:14;;;;;;;;;11.00;11.00;;;;;;;;5073004;28;46098;-74
2022/03/21 03:44:40;;;;;;;;;16.75;11.00;;;;;;;;5073584;27;45538;-77
2022/03/21 03:47:05;;;;;;;;;10.25;9.00;;;;;;;;5073318;28;45366;-77
2022/03/21 03:49:30;;;;;;;;;11.50;11.50;;;;;;;;5075395;28;45493;-77
2022/03/21 03:51:55;;;;;;;;;10.75;10.75;;;;;;;;5040720;28;45518;-77
2022/03/21 03:54:21;;;;;;;;;8.50;8.50;;;;;;;;5045379;28;45478;-76
2022/03/21 03:56:46;;;;;;;;;9.25;9.00;;;;;;;;5046912;28;45445;-76
2022/03/21 03:59:11;;;;;;;;;11.25;9.50;;;;;;;;5059581;28;45319;-77
2022/03/21 04:01:38;;;;;;;;;11.00;10.50;;;;;;;;5066982;28;45570;-77
2022/03/21 04:04:03;;;;;;;;;9.25;9.25;;;;;;;;5066270;28;45375;-77
2022/03/21 04:06:28;;;;;;;;;11.25;8.25;;;;;;;;5055359;28;45652;-77
2022/03/21 04:08:54;;;;;;;;;9.50;9.50;;;;;;;;5052341;28;45396;-76
2022/03/21 04:11:19;;;;;;;;;10.00;8.75;;;;;;;;5052753;28;45439;-76
2022/03/21 04:13:46;;;;;;;;;8.50;8.50;;;;;;;;5043823;28;45377;-77
2022/03/21 04:16:12;;;;;;;;;15.75;11.50;;;;;;;;5056386;28;45374;-77
2022/03/21 04:18:37;;;;;;;;;9.25;9.25;;;;;;;;5050137;28;45740;-77
2022/03/21 04:21:03;;;;;;;;;12.00;9.00;;;;;;;;5054044;28;45408;-76
2022/03/21 04:23:28;;;;;;;;;9.00;9.00;;;;;;;;5038936;28;45489;-76
2022/03/21 04:25:54;;;;;;;;;11.50;10.00;;;;;;;;5064295;28;45464;-77
2022/03/21 04:28:19;;;;;;;;;13.00;10.25;;;;;;;;5051716;28;45463;-77
2022/03/21 04:30:44;;;;;;;;;10.00;10.00;;;;;;;;5035981;28;48290;-77
2022/03/21 04:33:10;;;;;;;;;9.75;9.75;;;;;;;;5040218;28;45506;-77
2022/03/21 04:35:39;;;;;;;;;10.75;9.00;;;;;;;;5041997;28;45412;-76
2022/03/21 04:38:12;;;;;;;;;9.75;9.75;;;;;;;;5066532;28;45475;-77
2022/03/21 04:40:38;;;;;;;;;9.25;8.00;;;;;;;;5066606;28;46270;-77
2022/03/21 04:43:03;;;;;;;;;9.50;8.50;;;;;;;;5053201;28;45307;-76
2022/03/21 04:45:28;;;;;;;;;10.50;10.50;;;;;;;;5056880;28;45414;-76
2022/03/21 04:47:53;;;;;;;;;9.25;9.25;;;;;;;;5055784;28;45342;-76
2022/03/21 04:50:19;;;;;;;;;11.50;9.00;;;;;;;;5058888;28;46042;-77
2022/03/21 04:52:44;;;;;;;;;10.75;9.25;;;;;;;;5036518;28;45315;-76
2022/03/21 04:55:09;;;;;;;;;8.50;7.50;;;;;;;;5040457;28;45301;-77
2022/03/21 04:57:35;;;;;;;;;9.75;9.75;;;;;;;;5049330;28;45495;-76
2022/03/21 05:00:01;;;;;;;;;9.25;9.25;;;;;;;;5048786;28;46858;-76
2022/03/21 05:02:26;;;;;;;;;11.50;9.75;;;;;;;;5050776;28;45727;-76
2022/03/21 05:04:51;;;;;;;;;10.25;9.50;;;;;;;;5041109;28;45320;-76
2022/03/21 05:07:17;;;;;;;;;9.75;7.75;;;;;;;;5040035;28;45334;-76
2022/03/21 05:09:43;;;;;;;;;10.25;8.50;;;;;;;;5049972;28;46297;-76
2022/03/21 05:12:09;;;;;;;;;9.50;8.50;;;;;;;;5046129;28;45430;-77
2022/03/21 05:14:34;;;;;;;;;10.75;10.50;;;;;;;;5050328;28;45446;-76
2022/03/21 05:17:02;;;;;;;;;12.75;10.75;;;;;;;;5053197;28;45313;-76
2022/03/21 05:19:27;;;;;;;;;10.75;9.50;;;;;;;;5045879;28;45492;-76
2022/03/21 05:21:53;;;;;;;;;10.00;9.75;;;;;;;;5049090;28;45286;-77
2022/03/21 05:32:29;;;;;;;;;8.50;8.50;;;;;;;;5052916;28;45497;-77
2022/03/21 05:37:38;;;;;;;;;12.25;11.00;;;;;;;;5066633;28;45468;-77
2022/03/21 05:42:47;;;;;;;;;10.75;9.50;;;;;;;;5050048;28;45423;-77
2022/03/21 05:45:19;;;;;;;;;8.25;8.25;;;;;;;;5053263;28;45395;-76
2022/03/21 05:50:28;;;;;;;;;8.25;7.75;;;;;;;;5061859;28;45504;-76
2022/03/21 05:52:54;;;;;;;;;11.00;9.00;;;;;;;;5059008;28;45426;-76
2022/03/21 05:55:19;;;;;;;;;10.25;10.00;;;;;;;;5079080;28;45284;-76
2022/03/21 05:57:44;;;;;;;;;10.00;10.00;;;;;;;;5075722;28;45500;-76
2022/03/21 06:00:21;;;;;;;;;9.00;9.00;;;;;;;;5076167;28;47127;-77
2022/03/21 06:02:47;;;;;;;;;10.75;9.50;;;;;;;;5065712;28;45440;-76
2022/03/21 06:05:13;;;;;;;;;9.00;9.00;;;;;;;;5076200;28;45395;-77
2022/03/21 06:07:38;;;;;;;;;8.25;7.25;;;;;;;;5072974;28;45470;-77
2022/03/21 06:10:03;;;;;;;;;11.00;9.50;;;;;;;;5075289;28;46178;-76
2022/03/21 06:12:30;;;;;;;;;10.75;9.75;;;;;;;;5074705;28;45540;-76
2022/03/21 06:14:55;;;;;;;;;10.50;9.00;;;;;;;;5074411;28;45486;-76
2022/03/21 06:17:21;;;;;;;;;11.25;7.50;;;;;;;;5068838;28;45434;-76
2022/03/21 06:19:46;;;;;;;;;10.50;10.00;;;;;;;;5075055;28;46936;-77
2022/03/21 06:22:11;;;;;;;;;12.00;9.50;;;;;;;;5076927;28;45469;-76
2022/03/21 06:24:37;;;;;;;;;11.00;8.00;;;;;;;;5077741;27;45348;-76
2022/03/21 06:27:02;;;;;;;;;11.25;11.00;;;;;;;;5075232;28;45454;-76
2022/03/21 06:29:28;;;;;;;;;0.00;0.00;;;;;;;;5077162;28;45307;-77
2022/03/21 06:31:53;;;;;;;;;10.75;10.75;;;;;;;;5076050;27;45432;-76
2022/03/21 06:34:18;;;;;;;;;9.50;9.25;;;;;;;;5078294;28;45479;-76
2022/03/21 06:36:43;;;;;;;;;11.00;11.00;;;;;;;;5075414;28;45401;-72
2022/03/21 06:39:09;;;;;;;;;12.25;10.25;;;;;;;;5077137;27;45368;-72
2022/03/21 06:41:34;;;;;;;;;13.00;10.25;;;;;;;;5070825;28;45685;-73
2022/03/21 06:43:59;;;;;;;;;12.25;10.75;;;;;;;;5070254;28;45356;-72
2022/03/21 06:46:24;;;;;;;;;11.75;10.00;;;;;;;;5077709;28;45429;-71
2022/03/21 06:48:49;;;;;;;;;12.75;11.00;;;;;;;;5074990;28;45283;-73
2022/03/21 06:51:16;;;;;;;;;10.50;10.50;;;;;;;;5072997;28;45411;-74
2022/03/21 06:53:41;;;;;;;;;10.50;10.50;;;;;;;;5068624;28;45608;-74
2022/03/21 06:56:06;;;;;;;;;10.50;9.25;;;;;;;;5055294;28;49280;-75
2022/03/21 06:58:32;;;;;;;;;11.00;11.00;;;;;;;;5066682;28;46016;-73
2022/03/21 07:00:57;;;;;;;;;10.75;8.75;;;;;;;;5074361;28;45413;-74
2022/03/21 07:03:24;;;;;;;;;12.00;10.75;;;;;;;;5068307;28;45521;-72
2022/03/21 07:05:49;;;;;;;;;10.00;9.25;;;;;;;;5073877;27;45801;-74
2022/03/21 07:08:14;;;;;;;;;9.00;9.00;;;;;;;;5074314;28;46250;-74
2022/03/21 07:10:44;;;;;;;;;13.75;10.25;;;;;;;;5075808;28;45549;-74
2022/03/21 07:13:10;;;;;;;;;10.75;10.00;;;;;;;;5075422;28;45531;-74
2022/03/21 07:15:36;;;;;;;;;11.00;10.00;;;;;;;;5074435;28;45458;-74
2022/03/21 07:18:01;;;;;;;;;11.25;10.50;;;;;;;;5075120;28;47201;-74
2022/03/21 07:20:27;;;;;;;;;10.25;10.00;;;;;;;;5073914;28;45538;-73
2022/03/21 07:22:53;;;;;;;;;13.25;11.25;;;;;;;;5073603;27;45401;-72
2022/03/21 07:25:18;;;;;;;;;11.50;10.00;;;;;;;;5075251;28;45542;-72
2022/03/21 07:27:45;;;;;;;;;10.00;10.00;;;;;;;;5074450;28;47220;-72
2022/03/21 07:30:12;;;;;;;;;21.75;20.00;;;;;;;;5074031;28;45463;-70
2022/03/21 07:32:37;;;;;;;;;16.75;13.50;;;;;;;;5074087;28;45577;-71
2022/03/21 07:35:03;;;;;;;;;14.75;12.25;;;;;;;;5073225;27;45355;-72
2022/03/21 07:37:28;;;;;;;;;9.75;8.75;;;;;;;;5076122;28;45460;-71
2022/03/21 07:39:53;;;;;;;;;11.75;11.75;;;;;;;;5073215;28;45300;-72
2022/03/21 07:42:19;;;;;;;;;11.25;11.25;;;;;;;;5072755;28;45220;-72
2022/03/21 07:47:28;;;;;;;;;11.75;10.50;;;;;;;;5073676;28;45773;-71
2022/03/21 07:49:55;;;;;;;;;16.50;12.50;;;;;;;;5073386;27;45532;-72
2022/03/21 07:52:20;;;;;;;;;10.00;8.75;;;;;;;;5076049;28;45299;-71
2022/03/21 07:54:53;;;;;;;;;10.75;10.75;;;;;;;;5074553;28;45508;-71
2022/03/21 07:57:19;;;;;;;;;11.25;10.50;;;;;;;;5073684;28;46096;-71
2022/03/21 07:59:44;;;;;;;;;12.25;11.00;;;;;;;;5072069;28;45447;-72
2022/03/21 08:02:09;;;;;;;;;13.75;12.00;;;;;;;;5072158;28;45382;-72
2022/03/21 08:04:34;;;;;;;;;14.50;11.50;;;;;;;;5075496;28;45323;-71
2022/03/21 08:07:00;;;;;;;;;10.00;10.00;;;;;;;;5074069;28;45427;-71
2022/03/21 08:09:27;;;;;;;;;9.50;9.50;;;;;;;;5073345;28;45451;-72
2022/03/21 08:11:52;;;;;;;;;11.75;9.75;;;;;;;;5074189;28;45451;-71
2022/03/21 08:14:18;;;;;;;;;13.00;12.00;;;;;;;;5074177;28;45371;-72
2022/03/21 08:16:43;;;;;;;;;8.75;8.75;;;;;;;;5073959;28;45379;-72
2022/03/21 08:19:08;;;;;;;;;12.50;12.50;;;;;;;;5073739;28;45350;-72
2022/03/21 08:21:33;;;;;;;;;10.50;10.00;;;;;;;;5073808;28;45411;-71
2022/03/21 08:23:59;;;;;;;;;13.75;11.00;;;;;;;;5074014;27;45429;-71
2022/03/21 08:26:24;;;;;;;;;13.00;11.25;;;;;;;;5073806;28;46969;-72
2022/03/21 08:28:49;;;;;;;;;10.50;10.50;;;;;;;;5073906;28;45428;-72
2022/03/21 08:31:15;;;;;;;;;12.75;11.75;;;;;;;;5057640;28;45491;-72
2022/03/21 08:33:41;;;;;;;;;11.75;11.50;;;;;;;;5072855;28;45419;-72
2022/03/21 08:36:06;;;;;;;;;9.00;9.00;;;;;;;;5063720;28;46128;-72
2022/03/21 08:38:31;;;;;;;;;13.00;10.25;;;;;;;;5069944;28;45811;-72
2022/03/21 08:40:58;;;;;;;;;11.50;11.50;;;;;;;;5073627;28;45423;-72
2022/03/21 08:43:23;;;;;;;;;11.75;10.25;;;;;;;;5071738;28;45449;-72
2022/03/21 08:45:49;;;;;;;;;13.25;11.75;;;;;;;;5073526;28;46301;-72
2022/03/21 08:48:14;;;;;;;;;11.00;11.00;;;;;;;;5073362;28;45547;-71
2022/03/21 08:50:39;;;;;;;;;11.00;11.00;;;;;;;;5071313;28;45477;-72
2022/03/21 08:53:05;;;;;;;;;14.25;11.75;;;;;;;;5072328;28;45249;-72
2022/03/21 08:55:30;;;;;;;;;18.00;12.00;;;;;;;;5075024;28;46147;-72
2022/03/21 08:57:56;;;;;;;;;10.50;9.25;;;;;;;;5072562;28;45335;-72
2022/03/21 09:00:21;;;;;;;;;12.25;11.75;;;;;;;;5072024;28;45673;-72
2022/03/21 09:02:48;;;;;;;;;13.25;13.00;;;;;;;;5072321;28;45441;-71
2022/03/21 09:05:14;;;;;;;;;12.25;11.00;;;;;;;;5070105;28;45663;-71
2022/03/21 09:07:40;;;;;;;;;14.00;14.00;;;;;;;;5073791;28;45371;-72
2022/03/21 09:10:06;;;;;;;;;13.50;11.75;;;;;;;;5075074;28;45593;-71
2022/03/21 09:12:32;;;;;;;;;14.50;12.00;;;;;;;;5072814;28;45378;-71
2022/03/21 09:14:57;;;;;;;;;8.25;8.25;;;;;;;;5072647;28;45457;-71
2022/03/21 09:17:22;;;;;;;;;11.50;10.00;;;;;;;;5071773;28;45319;-71
2022/03/21 09:19:47;;;;;;;;;12.25;10.75;;;;;;;;5075710;28;45388;-72
2022/03/21 09:22:12;;;;;;;;;12.00;12.00;;;;;;;;5077856;28;45340;-71
2022/03/21 09:24:38;;;;;;;;;10.75;10.75;;;;;;;;5076670;28;45905;-72
2022/03/21 09:27:03;;;;;;;;;13.75;12.00;;;;;;;;5076587;28;45304;-71
2022/03/21 09:29:28;;;;;;;;;12.25;11.25;;;;;;;;5072543;27;45436;-71
2022/03/21 09:31:53;;;;;;;;;12.50;11.00;;;;;;;;5076144;28;45632;-72
2022/03/21 09:34:19;;;;;;;;;11.25;11.25;;;;;;;;5077976;28;45307;-71
2022/03/21 09:36:44;;;;;;;;;15.50;12.00;;;;;;;;5074753;28;45477;-71
2022/03/21 09:39:10;;;;;;;;;14.00;12.25;;;;;;;;5074171;28;45387;-71
2022/03/21 09:41:36;;;;;;;;;11.75;11.25;;;;;;;;5074115;28;45502;-71
2022/03/21 09:44:09;;;;;;;;;13.00;12.00;;;;;;;;5076637;27;47089;-71
2022/03/21 09:46:36;;;;;;;;;15.00;12.00;;;;;;;;5077569;28;45319;-71
2022/03/21 09:49:03;;;;;;;;;13.50;11.00;;;;;;;;5075612;28;45324;-72
2022/03/21 09:51:29;;;;;;;;;11.75;10.75;;;;;;;;5074570;28;45222;-72
2022/03/21 09:53:56;;;;;;;;;12.50;12.00;;;;;;;;5075469;28;46466;-72
2022/03/21 09:56:21;;;;;;;;;12.00;11.50;;;;;;;;5076360;28;45393;-72
2022/03/21 09:58:47;;;;;;;;;13.25;11.50;;;;;;;;5076265;28;45640;-72
2022/03/21 10:01:13;;;;;;;;;14.00;11.00;;;;;;;;5078361;28;45454;-71
2022/03/21 10:03:39;;;;;;;;;13.75;12.75;;;;;;;;5077167;27;45583;-72
2022/03/21 10:06:24;;;;;;;;;12.75;10.75;;;;;;;;5075370;28;45449;-71
2022/03/21 10:08:49;;;;;;;;;13.25;11.25;;;;;;;;5063365;28;45490;-72
2022/03/21 10:11:21;;;;;;;;;15.00;12.25;;;;;;;;5058425;28;45293;-71
2022/03/21 10:13:46;;;;;;;;;15.75;13.00;;;;;;;;5076384;28;46270;-72
2022/03/21 10:16:13;;;;;;;;;11.25;9.75;;;;;;;;5076099;28;46005;-72
2022/03/21 10:18:54;;;;;;;;;11.75;10.75;;;;;;;;5074368;28;45442;-71
2022/03/21 10:21:20;;;;;;;;;16.75;14.00;;;;;;;;5073760;28;45308;-72
2022/03/21 10:23:57;;;;;;;;;11.75;10.50;;;;;;;;5073966;28;45434;-72
2022/03/21 10:26:32;;;;;;;;;12.25;10.75;;;;;;;;5076429;28;45465;-71
2022/03/21 10:28:59;;;;;;;;;11.75;11.75;;;;;;;;5059285;28;45409;-71
2022/03/21 10:31:33;;;;;;;;;12.00;12.00;;;;;;;;5073120;28;45328;-72
2022/03/21 10:33:59;;;;;;;;;14.00;11.75;;;;;;;;5075004;28;45416;-71
2022/03/21 10:36:24;;;;;;;;;13.00;12.00;;;;;;;;5074701;28;45296;-71
2022/03/21 10:39:04;;;;;;;;;14.00;12.25;;;;;;;;5075640;28;45284;-71
2022/03/21 10:41:34;;;;;;;;;12.50;12.00;;;;;;;;5075777;28;45622;-71
2022/03/21 10:44:00;;;;;;;;;12.00;12.00;;;;;;;;5062927;27;46274;-71
2022/03/21 10:46:25;;;;;;;;;14.00;11.25;;;;;;;;5077459;28;45300;-72
2022/03/21 10:49:00;;;;;;;;;13.25;12.00;;;;;;;;5075814;27;45284;-71
2022/03/21 10:51:25;;;;;;;;;10.00;10.00;;;;;;;;5075529;28;46452;-71
2022/03/21 10:53:51;;;;;;;;;15.75;12.25;;;;;;;;5073751;28;47522;-71
2022/03/21 10:56:16;;;;;;;;;14.75;12.75;;;;;;;;5072565;28;45856;-72
2022/03/21 10:58:47;;;;;;;;;12.25;11.00;;;;;;;;5076770;28;45307;-72
2022/03/21 11:01:12;;;;;;;;;13.25;12.50;;;;;;;;5075591;28;45403;-72
2022/03/21 11:03:41;;;;;;;;;14.75;13.25;;;;;;;;5073672;28;45427;-72
2022/03/21 11:06:06;;;;;;;;;11.75;11.75;;;;;;;;5075460;28;45410;-71
2022/03/21 11:08:32;;;;;;;;;15.50;12.75;;;;;;;;5075037;28;45396;-72
2022/03/21 11:10:57;;;;;;;;;10.75;10.75;;;;;;;;5075609;28;45368;-72
2022/03/21 11:13:23;;;;;;;;;10.75;10.75;;;;;;;;5076852;28;46333;-71
2022/03/21 11:15:48;;;;;;;;;14.00;12.50;;;;;;;;5074715;28;45341;-72
2022/03/21 11:18:14;;;;;;;;;13.00;12.25;;;;;;;;5075126;27;45478;-72
2022/03/21 11:20:40;;;;;;;;;14.00;11.50;;;;;;;;5072673;28;45473;-72
2022/03/21 11:23:06;;;;;;;;;13.75;12.00;;;;;;;;5074756;28;47276;-71
2022/03/21 11:25:32;;;;;;;;;11.25;10.00;;;;;;;;5076587;28;45371;-71
2022/03/21 11:28:16;;;;;;;;;11.50;11.50;;;;;;;;5076020;28;45436;-72
2022/03/21 11:30:44;;;;;;;;;11.75;11.25;;;;;;;;5074630;27;45460;-72
2022/03/21 11:33:28;;;;;;;;;12.50;11.50;;;;;;;;5072323;28;46153;-72
2022/03/21 11:36:00;;;;;;;;;11.25;11.25;;;;;;;;5074058;28;45419;-72
2022/03/21 11:38:27;;;;;;;;;11.00;11.00;;;;;;;;5074851;28;45269;-72
2022/03/21 11:41:12;;;;;;;;;12.00;11.50;;;;;;;;5073349;28;45271;-71
2022/03/21 11:43:38;;;;;;;;;11.00;8.75;;;;;;;;5072188;28;46073;-72
2022/03/21 11:46:20;;;;;;;;;9.25;9.00;;;;;;;;5075228;28;45931;-71
2022/03/21 11:48:45;;;;;;;;;11.50;10.75;;;;;;;;5071431;27;45359;-72
2022/03/21 11:51:16;;;;;;;;;10.00;10.00;;;;;;;;5072794;28;45570;-72
2022/03/21 11:53:53;;;;;;;;;11.25;11.25;;;;;;;;5073608;28;46413;-72
2022/03/21 11:56:37;;;;;;;;;12.75;10.50;;;;;;;;5058784;28;45842;-72
2022/03/21 11:59:02;;;;;;;;;11.50;10.50;;;;;;;;5067151;27;45514;-71
2022/03/21 12:01:30;;;;;;;;;12.50;12.50;;;;;;;;5076160;28;45362;-72
2022/03/21 12:04:15;;;;;;;;;11.00;9.25;;;;;;;;5075020;28;47335;-72
2022/03/21 12:06:41;;;;;;;;;11.25;11.25;;;;;;;;5072236;28;45577;-72
2022/03/21 12:09:10;;;;;;;;;9.50;8.75;;;;;;;;5075063;28;45553;-72
2022/03/21 12:11:38;;;;;;;;;12.00;10.00;;;;;;;;5073856;28;45532;-72
2022/03/21 12:14:25;;;;;;;;;10.00;9.50;;;;;;;;5071681;28;46080;-72
2022/03/21 12:17:02;;;;;;;;;13.75;12.75;;;;;;;;5073830;28;45433;-72
2022/03/21 12:20:12;;;;;;;;;10.00;9.00;;;;;;;;5072378;28;45364;-72
2022/03/21 12:22:39;;;;;;;;;11.75;10.75;;;;;;;;5073445;27;45387;-72
2022/03/21 12:25:09;;;;;;;;;9.25;9.00;;;;;;;;5075189;28;47214;-71
2022/03/21 12:27:45;;;;;;;;;8.25;8.25;;;;;;;;5073805;27;45362;-72
2022/03/21 12:30:19;;;;;;;;;8.00;8.00;;;;;;;;5078325;27;45271;-71
2022/03/21 12:32:50;;;;;;;;;12.25;10.50;;;;;;;;5073884;28;45229;-72
2022/03/21 12:35:47;;;;;;;;;10.50;10.00;;;;;;;;5073834;28;45376;-72
2022/03/21 12:38:14;;;;;;;;;7.00;7.00;;;;;;;;4959791;28;45489;-72
2022/03/21 12:40:51;;;;;;;;;11.00;11.00;;;;;;;;4973541;28;45426;-71
2022/03/21 12:43:23;;;;;;;;;8.75;8.75;;;;;;;;4972828;28;45687;-72
2022/03/21 12:45:50;;;;;;;;;9.00;8.75;;;;;;;;4971684;28;46281;-72
2022/03/21 12:48:17;;;;;;;;;11.00;9.00;;;;;;;;4970224;28;45432;-72
2022/03/21 12:50:45;;;;;;;;;8.50;8.00;;;;;;;;4972374;28;45522;-72
2022/03/21 12:53:11;;;;;;;;;8.75;7.25;;;;;;;;4972964;28;45559;-72
2022/03/21 12:55:37;;;;;;;;;11.00;9.50;;;;;;;;4972703;28;45583;-72
2022/03/21 12:58:04;;;;;;;;;10.75;10.00;;;;;;;;4972056;28;45495;-71
2022/03/21 13:00:31;;;;;;;;;11.25;10.50;;;;;;;;4971544;28;45639;-72
2022/03/21 13:02:57;;;;;;;;;10.25;8.25;;;;;;;;4972054;28;45466;-72
2022/03/21 13:10:52;;;;;;;;;12.50;9.00;;;;;;;;4972172;28;45456;-72
2022/03/21 13:13:17;;;;;;;;;11.75;9.50;;;;;;;;5001809;28;45492;-72
2022/03/21 13:15:42;;;;;;;;;10.00;8.50;;;;;;;;5071855;28;45478;-72
2022/03/21 13:18:08;;;;;;;;;10.00;10.00;;;;;;;;5072322;28;45371;-71
2022/03/21 13:20:35;;;;;;;;;8.50;7.25;;;;;;;;5072904;28;45495;-72
2022/03/21 13:23:01;;;;;;;;;12.25;8.25;;;;;;;;5073794;27;45379;-71
2022/03/21 13:25:36;;;;;;;;;10.00;9.25;;;;;;;;5079673;27;45509;-71
2022/03/21 13:28:07;;;;;;;;;9.00;9.00;;;;;;;;5073393;28;45308;-71
2022/03/21 13:30:36;;;;;;;;;11.75;9.00;;;;;;;;5071636;28;45467;-72
2022/03/21 13:33:01;;;;;;;;;9.25;9.00;;;;;;;;5071047;28;45494;-72
2022/03/21 13:35:26;;;;;;;;;8.00;8.00;;;;;;;;5072874;28;46128;-70
2022/03/21 13:37:58;;;;;;;;;10.50;9.00;;;;;;;;5072613;28;45422;-69
2022/03/21 13:40:27;;;;;;;;;6.75;6.25;;;;;;;;5070852;28;45335;-69
2022/03/21 13:42:52;;;;;;;;;10.00;8.75;;;;;;;;5072971;28;45179;-70
2022/03/21 13:45:17;;;;;;;;;10.00;8.50;;;;;;;;5070971;28;47350;-69
2022/03/21 13:47:47;;;;;;;;;9.75;9.75;;;;;;;;5072727;28;45462;-72
2022/03/21 13:50:12;;;;;;;;;9.75;9.00;;;;;;;;5071839;28;45427;-72
2022/03/21 13:52:41;;;;;;;;;9.00;7.25;;;;;;;;5073191;28;45617;-72
2022/03/21 13:55:07;;;;;;;;;9.75;8.50;;;;;;;;5074052;27;47044;-72
2022/03/21 13:57:41;;;;;;;;;9.25;9.25;;;;;;;;5073113;28;45442;-72
2022/03/21 14:00:10;;;;;;;;;9.00;9.00;;;;;;;;5073201;28;45592;-70
2022/03/21 14:02:41;;;;;;;;;9.00;8.75;;;;;;;;5072076;28;45475;-70
2022/03/21 14:05:20;;;;;;;;;9.25;8.25;;;;;;;;5072071;28;45526;-70
2022/03/21 14:07:49;;;;;;;;;9.25;8.25;;;;;;;;5057124;28;45925;-70
2022/03/21 14:10:15;;;;;;;;;8.25;8.00;;;;;;;;5076733;28;47291;-70
2022/03/21 14:12:42;;;;;;;;;9.50;9.50;;;;;;;;5074804;28;45395;-70
2022/03/21 14:15:07;;;;;;;;;9.00;8.50;;;;;;;;5073267;28;46151;-70
2022/03/21 14:17:32;;;;;;;;;9.50;8.00;;;;;;;;5074505;28;45423;-70
2022/03/21 14:19:57;;;;;;;;;10.25;9.00;;;;;;;;5075855;28;45256;-70
2022/03/21 14:22:23;;;;;;;;;10.00;8.75;;;;;;;;5078191;28;45550;-70
2022/03/21 14:24:48;;;;;;;;;9.25;8.00;;;;;;;;5074183;28;45386;-70
2022/03/21 14:27:13;;;;;;;;;9.00;7.25;;;;;;;;5074504;28;45899;-70
2022/03/21 14:29:38;;;;;;;;;8.25;8.00;;;;;;;;5075855;28;45320;-71
2022/03/21 14:32:04;;;;;;;;;9.00;8.00;;;;;;;;5074553;28;45478;-72
2022/03/21 14:34:30;;;;;;;;;8.25;7.25;;;;;;;;5077206;28;47166;-69
2022/03/21 14:36:55;;;;;;;;;10.50;7.75;;;;;;;;5075286;28;45330;-70
2022/03/21 14:39:20;;;;;;;;;8.50;7.75;;;;;;;;5074027;28;45471;-72
2022/03/21 14:41:45;;;;;;;;;9.00;7.75;;;;;;;;5075804;28;45335;-72
2022/03/21 14:44:11;;;;;;;;;7.50;7.25;;;;;;;;5074421;28;45429;-72
2022/03/21 14:46:36;;;;;;;;;7.00;7.00;;;;;;;;5078347;27;45321;-70
2022/03/21 14:49:01;;;;;;;;;7.75;7.00;;;;;;;;5080011;27;45523;-70
2022/03/21 14:51:27;;;;;;;;;8.25;7.75;;;;;;;;5077020;27;45429;-70